KBEH

Southwest Michigan Regional Airport

Benton Harbor, Michigan, USA
METAR KBEH 132353Z AUTO 09004KT 8SM BKN060 OVC080 04/M01 A3012 RMK AO2 SLP206 T00441006 10072 20033 51009
Observed Flight Rules
Dec-13 @ 23:53 UTC (52 minutes ago) Visual Flight Rules
Wind Visibility Clouds
90° at 4 knots 8 miles
  • Broken at 6,000' AGL
  • Overcast at 8,000' AGL
Temperatures Readings
Current 4°C / 39°F
Dewpoint -1°C / 30°F
Humidity 70%
Altimeter 30.12" Hg
Pressure 1020.6 hPa
Elevation 191
METAR KBEH 132353Z AUTO 09004KT 8SM BKN060 OVC080 04/M01 A3012 RMK AO2 SLP206 T00441006 10072 20033 51009
Observed Flight Rules
Dec-13 @ 23:53 UTC
(52 minutes ago)
VFR
Wind Visibility
90° at 4 knots 8 miles
Clouds
  • Broken at 6,000' AGL
  • Overcast at 8,000' AGL
Temperature Dewpoint
4°C / 39°F -1°C / 30°F
Humidity Altimeter Pressure
70% 30.12" Hg 1020.6 hPa